createdAt,value
2023-04-29T00:01:20.835Z,16.00
2023-04-29T00:03:47.675Z,16.00
2023-04-29T00:06:14.640Z,16.00
2023-04-29T00:08:41.608Z,16.00
2023-04-29T00:11:08.384Z,16.00
2023-04-29T00:13:35.017Z,16.00
2023-04-29T00:16:01.677Z,16.00
2023-04-29T00:18:28.291Z,15.90
2023-04-29T00:20:55.052Z,15.90
2023-04-29T00:23:21.754Z,15.90
2023-04-29T00:25:48.488Z,15.90
2023-04-29T00:28:15.229Z,15.80
2023-04-29T00:30:41.935Z,15.80
2023-04-29T00:33:08.711Z,15.80
2023-04-29T00:35:35.654Z,15.70
2023-04-29T00:38:02.354Z,15.70
2023-04-29T00:40:29.363Z,15.70
2023-04-29T00:42:56.304Z,15.70
2023-04-29T00:45:23.757Z,15.60
2023-04-29T00:47:50.529Z,15.60
2023-04-29T00:50:17.282Z,15.50
2023-04-29T00:52:44.819Z,15.50
2023-04-29T00:55:13.076Z,15.50
2023-04-29T00:57:39.921Z,15.40
2023-04-29T01:00:07.322Z,15.40
2023-04-29T01:02:35.126Z,15.40
2023-04-29T01:05:02.161Z,15.40
2023-04-29T01:07:42.972Z,15.40
2023-04-29T01:10:32.082Z,15.30
2023-04-29T01:13:22.933Z,15.30
2023-04-29T01:16:03.588Z,15.30
2023-04-29T01:18:35.120Z,15.30
2023-04-29T01:21:02.732Z,15.30
2023-04-29T01:23:30.076Z,15.30
2023-04-29T01:25:57.882Z,15.30
2023-04-29T01:28:59.053Z,15.20
2023-04-29T01:31:41.600Z,15.30
2023-04-29T01:34:22.381Z,15.20
2023-04-29T01:37:09.819Z,15.20
2023-04-29T01:39:45.640Z,15.20
2023-04-29T01:42:36.376Z,15.20
2023-04-29T01:45:12.652Z,15.10
2023-04-29T01:47:39.691Z,15.10
2023-04-29T01:50:06.999Z,15.20
2023-04-29T01:52:33.858Z,15.10
2023-04-29T01:55:00.980Z,15.10
2023-04-29T01:57:36.952Z,15.10
2023-04-29T02:00:22.457Z,15.10
2023-04-29T02:02:52.224Z,15.10
2023-04-29T02:05:34.209Z,15.00
2023-04-29T02:08:02.058Z,15.00
2023-04-29T02:10:31.103Z,15.00
2023-04-29T02:13:14.131Z,15.00
2023-04-29T02:15:41.795Z,15.00
2023-04-29T02:18:08.960Z,15.00
2023-04-29T02:20:35.792Z,14.90
2023-04-29T02:23:05.290Z,14.90
2023-04-29T02:25:32.002Z,14.90
2023-04-29T02:27:59.084Z,14.90
2023-04-29T02:30:26.344Z,14.90
2023-04-29T02:32:53.088Z,14.90
2023-04-29T02:35:19.817Z,14.90
2023-04-29T02:37:47.386Z,14.90
2023-04-29T02:40:14.056Z,14.80
2023-04-29T02:42:40.766Z,14.80
2023-04-29T02:45:08.129Z,14.80
2023-04-29T02:47:34.837Z,14.80
2023-04-29T02:50:01.630Z,14.80
2023-04-29T02:52:29.150Z,14.80
2023-04-29T02:54:55.935Z,14.80
2023-04-29T02:57:22.619Z,14.80
2023-04-29T02:59:49.464Z,14.80
2023-04-29T03:02:16.382Z,14.80
2023-04-29T03:04:46.660Z,14.80
2023-04-29T03:07:13.290Z,14.80
2023-04-29T03:09:40.034Z,14.80
2023-04-29T03:12:06.906Z,14.80
2023-04-29T03:14:33.544Z,14.70
2023-04-29T03:17:00.388Z,14.70
2023-04-29T03:19:27.209Z,14.70
2023-04-29T03:21:54.058Z,14.80
2023-04-29T03:24:21.988Z,14.70
2023-04-29T03:26:48.764Z,14.70
2023-04-29T03:29:15.632Z,14.70
2023-04-29T03:31:42.481Z,14.80
2023-04-29T03:34:09.352Z,14.70
2023-04-29T03:36:40.010Z,14.70
2023-04-29T03:39:07.844Z,14.80
2023-04-29T03:41:34.599Z,14.70
2023-04-29T03:44:01.455Z,14.80
2023-04-29T03:46:29.536Z,14.70
2023-04-29T03:48:56.514Z,14.70
2023-04-29T03:51:27.107Z,14.70
2023-04-29T03:54:01.739Z,14.70
2023-04-29T03:56:28.626Z,14.70
2023-04-29T03:58:55.425Z,14.70
2023-04-29T04:01:26.263Z,14.70
2023-04-29T04:03:53.272Z,14.70
2023-04-29T04:06:20.306Z,14.70
2023-04-29T04:08:48.784Z,14.70
2023-04-29T04:11:19.580Z,14.70
2023-04-29T04:13:52.003Z,14.70
2023-04-29T04:16:19.075Z,14.70
2023-04-29T04:18:45.923Z,14.70
2023-04-29T04:21:13.481Z,14.70
2023-04-29T04:23:44.114Z,14.70
2023-04-29T04:26:13.816Z,14.60
2023-04-29T04:28:49.588Z,14.60
2023-04-29T04:31:23.555Z,14.60
2023-04-29T04:33:51.072Z,14.60
2023-04-29T04:36:18.093Z,14.60
2023-04-29T04:38:45.298Z,14.60
2023-04-29T04:41:12.953Z,14.50
2023-04-29T04:43:42.981Z,14.50
2023-04-29T04:46:17.577Z,14.50
2023-04-29T04:48:58.179Z,14.50
2023-04-29T04:51:25.109Z,14.50
2023-04-29T04:53:52.361Z,14.50
2023-04-29T04:56:21.202Z,14.50
2023-04-29T04:58:47.858Z,14.50
2023-04-29T05:01:14.809Z,14.40
2023-04-29T05:03:41.715Z,14.40
2023-04-29T05:06:08.866Z,14.40
2023-04-29T05:08:36.270Z,14.40
2023-04-29T05:11:04.733Z,14.40
2023-04-29T05:13:33.287Z,14.40
2023-04-29T05:16:06.362Z,14.40
2023-04-29T05:18:34.606Z,14.40
2023-04-29T05:21:01.302Z,14.40
2023-04-29T05:23:28.255Z,14.40
2023-04-29T05:25:55.236Z,14.40
2023-04-29T05:28:21.922Z,14.40
2023-04-29T05:30:51.949Z,14.40
2023-04-29T05:33:18.714Z,14.40
2023-04-29T05:35:45.573Z,14.40
2023-04-29T05:38:12.188Z,14.40
2023-04-29T05:40:41.045Z,14.40
2023-04-29T05:43:25.392Z,14.40
2023-04-29T05:45:53.136Z,14.40
2023-04-29T05:48:19.908Z,14.40
2023-04-29T05:50:48.118Z,14.40
2023-04-29T05:53:14.755Z,14.30
2023-04-29T05:55:44.836Z,14.40
2023-04-29T05:58:12.783Z,14.40
2023-04-29T06:00:40.684Z,14.40
2023-04-29T06:03:14.195Z,14.30
2023-04-29T06:05:41.838Z,14.30
2023-04-29T06:08:17.816Z,14.40
2023-04-29T06:10:51.694Z,14.30
2023-04-29T06:13:18.709Z,14.30
2023-04-29T06:15:45.664Z,14.30
2023-04-29T06:18:14.142Z,14.30
2023-04-29T06:20:40.827Z,14.20
2023-04-29T06:23:07.527Z,14.40
2023-04-29T06:25:34.218Z,14.30
2023-04-29T06:28:04.539Z,14.30
2023-04-29T06:30:31.664Z,14.30
2023-04-29T06:32:58.738Z,14.30
2023-04-29T06:35:25.689Z,14.30
2023-04-29T06:38:10.937Z,14.30
2023-04-29T06:41:00.615Z,14.30
2023-04-29T06:43:48.518Z,14.30
2023-04-29T06:46:16.273Z,14.30
2023-04-29T06:48:55.944Z,14.30
2023-04-29T06:51:22.758Z,14.30
2023-04-29T06:53:49.390Z,14.30
2023-04-29T06:56:17.172Z,14.30
2023-04-29T06:58:44.021Z,14.30
2023-04-29T07:01:11.029Z,14.40
2023-04-29T07:03:38.380Z,14.40
2023-04-29T07:06:05.248Z,14.40
2023-04-29T07:08:32.201Z,14.40
2023-04-29T07:10:58.976Z,14.40
2023-04-29T07:13:26.124Z,14.40
2023-04-29T07:15:53.001Z,14.40
2023-04-29T07:18:19.872Z,14.50
2023-04-29T07:20:47.944Z,14.50
2023-04-29T07:23:15.088Z,14.50
2023-04-29T07:25:41.884Z,14.50
2023-04-29T07:28:09.200Z,14.60
2023-04-29T07:30:36.249Z,14.60
2023-04-29T07:33:04.561Z,14.60
2023-04-29T07:35:31.692Z,14.70
2023-04-29T07:37:58.470Z,14.70
2023-04-29T07:40:26.236Z,14.70
2023-04-29T07:42:57.551Z,14.70
2023-04-29T07:45:24.260Z,14.70
2023-04-29T07:47:51.305Z,14.80
2023-04-29T07:50:18.121Z,14.80
2023-04-29T07:52:44.729Z,14.80
2023-04-29T07:55:11.331Z,14.80
2023-04-29T07:57:38.654Z,14.80
2023-04-29T08:00:06.280Z,14.80
2023-04-29T08:02:42.458Z,14.80
2023-04-29T08:05:10.671Z,14.90
2023-04-29T08:07:38.721Z,14.90
2023-04-29T08:10:06.194Z,14.90
2023-04-29T08:12:32.921Z,15.00
2023-04-29T08:15:00.724Z,15.00
2023-04-29T08:17:27.428Z,15.10
2023-04-29T08:19:54.154Z,15.10
2023-04-29T08:22:20.845Z,15.20
2023-04-29T08:24:48.462Z,15.20
2023-04-29T08:27:15.587Z,15.30
2023-04-29T08:29:43.136Z,15.30
2023-04-29T08:32:09.813Z,15.40
2023-04-29T08:34:36.484Z,15.40
2023-04-29T08:37:03.469Z,15.40
2023-04-29T08:39:31.148Z,15.50
2023-04-29T08:41:59.295Z,15.60
2023-04-29T08:44:27.287Z,15.60
2023-04-29T08:46:55.497Z,15.60
2023-04-29T08:49:22.264Z,15.70
2023-04-29T08:51:52.161Z,15.70
2023-04-29T08:54:18.965Z,15.80
2023-04-29T08:56:47.502Z,15.80
2023-04-29T08:59:17.926Z,15.90
2023-04-29T09:01:50.404Z,15.90
2023-04-29T09:04:31.851Z,16.00
2023-04-29T09:06:59.413Z,16.00
2023-04-29T09:09:26.685Z,16.10
2023-04-29T09:11:53.593Z,16.20
2023-04-29T09:14:21.006Z,16.30
2023-04-29T09:16:47.878Z,16.30
2023-04-29T09:19:37.931Z,16.40
2023-04-29T09:22:07.178Z,16.50
2023-04-29T09:24:34.031Z,16.60
2023-04-29T09:27:01.561Z,16.70
2023-04-29T09:29:28.462Z,16.90
2023-04-29T09:31:56.068Z,17.00
2023-04-29T09:34:35.751Z,17.10
2023-04-29T09:37:02.494Z,17.30
2023-04-29T09:39:38.747Z,17.40
2023-04-29T09:42:06.232Z,17.50
2023-04-29T09:44:35.921Z,17.70
2023-04-29T09:47:03.060Z,17.80
2023-04-29T09:49:38.828Z,17.90
2023-04-29T09:52:07.994Z,18.00
2023-04-29T09:54:38.846Z,18.20
2023-04-29T09:57:06.915Z,18.20
2023-04-29T09:59:38.510Z,18.30
2023-04-29T10:02:16.289Z,18.60
2023-04-29T10:04:45.472Z,18.40
2023-04-29T10:07:16.877Z,18.50
2023-04-29T10:09:49.222Z,18.60
2023-04-29T10:12:20.795Z,18.70
2023-04-29T10:15:03.508Z,18.80
2023-04-29T10:18:21.103Z,18.90
2023-04-29T10:20:48.762Z,19.00
2023-04-29T10:23:16.506Z,19.10
2023-04-29T10:25:46.530Z,19.20
2023-04-29T10:28:16.817Z,19.30
2023-04-29T10:30:51.668Z,19.40
2023-04-29T10:33:19.210Z,19.50
2023-04-29T10:35:48.181Z,19.60
2023-04-29T10:38:37.054Z,19.70
2023-04-29T10:41:10.581Z,19.70
2023-04-29T10:43:37.391Z,19.80
2023-04-29T10:46:20.082Z,19.80
2023-04-29T10:48:47.831Z,19.90
2023-04-29T10:51:28.383Z,19.90
2023-04-29T10:54:15.770Z,20.00
2023-04-29T10:56:50.334Z,20.10
2023-04-29T10:59:21.319Z,20.20
2023-04-29T11:01:52.755Z,20.40
2023-04-29T11:04:23.335Z,20.40
2023-04-29T11:06:58.970Z,20.40
2023-04-29T11:09:30.663Z,20.50
2023-04-29T11:12:04.002Z,20.60
2023-04-29T11:14:41.430Z,20.60
2023-04-29T11:17:10.528Z,20.60
2023-04-29T11:19:49.567Z,20.60
2023-04-29T11:22:19.399Z,20.60
2023-04-29T11:24:55.361Z,20.50
2023-04-29T11:27:27.360Z,20.50
2023-04-29T11:29:58.279Z,20.50
2023-04-29T11:32:26.961Z,20.50
2023-04-29T11:34:54.141Z,20.50
2023-04-29T11:37:25.712Z,20.40
2023-04-29T11:40:01.453Z,20.40
2023-04-29T11:42:28.634Z,20.40
2023-04-29T11:45:00.265Z,20.40
2023-04-29T11:47:30.860Z,20.30
2023-04-29T11:50:06.357Z,20.30
2023-04-29T11:52:33.602Z,20.20
2023-04-29T11:55:00.512Z,20.20
2023-04-29T11:57:27.323Z,20.10
2023-04-29T11:59:54.151Z,20.20
2023-04-29T12:02:31.683Z,20.10
2023-04-29T12:05:12.989Z,20.00
2023-04-29T12:07:40.243Z,20.00
2023-04-29T12:10:11.749Z,20.00
2023-04-29T12:12:40.892Z,19.90
2023-04-29T12:15:10.069Z,19.90
2023-04-29T12:17:38.093Z,19.90
2023-04-29T12:20:06.083Z,19.80
2023-04-29T12:22:33.480Z,19.90
2023-04-29T12:25:00.171Z,19.80
2023-04-29T12:27:26.981Z,19.90
2023-04-29T12:29:53.775Z,19.90
2023-04-29T12:32:24.974Z,19.90
2023-04-29T12:34:53.263Z,19.90
2023-04-29T12:37:26.114Z,19.90
2023-04-29T12:39:54.964Z,19.90
2023-04-29T12:42:21.745Z,20.00
2023-04-29T12:44:48.907Z,19.90
2023-04-29T12:47:16.224Z,19.90
2023-04-29T12:49:46.935Z,19.90
2023-04-29T12:52:14.119Z,19.90
2023-04-29T12:54:43.320Z,20.00
2023-04-29T12:57:11.339Z,20.00
2023-04-29T12:59:38.445Z,20.00
2023-04-29T13:02:05.408Z,20.00
2023-04-29T13:04:32.465Z,20.00
2023-04-29T13:07:02.494Z,20.00
2023-04-29T13:09:30.312Z,20.00
2023-04-29T13:11:57.672Z,20.10
2023-04-29T13:14:24.477Z,20.10
2023-04-29T13:16:51.263Z,20.10
2023-04-29T13:19:28.277Z,20.10
2023-04-29T13:22:04.589Z,20.20
2023-04-29T13:24:32.917Z,20.20
2023-04-29T13:26:59.952Z,20.20
2023-04-29T13:29:27.135Z,20.20
2023-04-29T13:31:53.864Z,20.30
2023-04-29T13:34:21.350Z,20.30
2023-04-29T13:36:48.219Z,20.20
2023-04-29T13:39:15.078Z,20.20
2023-04-29T13:41:45.533Z,20.20
2023-04-29T13:44:23.723Z,20.20
2023-04-29T13:46:55.798Z,20.10
2023-04-29T13:49:53.724Z,20.10
2023-04-29T13:54:58.955Z,20.00
2023-04-29T13:58:29.991Z,19.90
2023-04-29T14:00:38.049Z,19.90
2023-04-29T14:03:02.057Z,19.80
2023-04-29T14:05:28.978Z,19.80
2023-04-29T14:07:55.925Z,19.80
2023-04-29T14:10:22.556Z,19.70
2023-04-29T14:12:49.242Z,19.70
2023-04-29T14:15:16.597Z,19.70
2023-04-29T14:17:43.410Z,19.70
2023-04-29T14:20:10.427Z,19.70
2023-04-29T14:22:37.159Z,19.60
2023-04-29T14:25:04.002Z,19.90
2023-04-29T14:27:30.630Z,19.70
2023-04-29T14:29:57.301Z,19.70
2023-04-29T14:32:24.105Z,19.70
2023-04-29T14:34:50.834Z,19.70
2023-04-29T14:37:17.589Z,19.70
2023-04-29T14:39:44.362Z,19.70
2023-04-29T14:42:12.704Z,19.70
2023-04-29T14:44:39.426Z,19.70
2023-04-29T14:47:06.060Z,19.70
2023-04-29T14:49:32.686Z,19.70
2023-04-29T14:51:59.596Z,19.60
2023-04-29T14:54:27.704Z,19.60
2023-04-29T14:56:54.324Z,19.60
2023-04-29T14:59:21.004Z,19.50
2023-04-29T15:01:47.890Z,19.50
2023-04-29T15:04:14.782Z,19.40
2023-04-29T15:06:41.627Z,19.30
2023-04-29T15:09:08.308Z,19.30
2023-04-29T15:11:34.982Z,19.30
2023-04-29T15:14:01.638Z,19.20
2023-04-29T15:16:29.825Z,19.20
2023-04-29T15:18:56.521Z,19.20
2023-04-29T15:21:23.174Z,19.10
2023-04-29T15:23:49.855Z,19.10
2023-04-29T15:26:16.797Z,19.10
2023-04-29T15:28:45.528Z,19.10
2023-04-29T15:31:12.756Z,19.20
2023-04-29T15:33:39.470Z,19.10
2023-04-29T15:36:07.104Z,19.10
2023-04-29T15:38:33.793Z,19.20
2023-04-29T15:41:01.486Z,19.20
2023-04-29T15:43:28.884Z,19.20
2023-04-29T15:45:56.025Z,19.30
2023-04-29T15:48:22.816Z,19.30
2023-04-29T15:50:49.509Z,19.30
2023-04-29T15:53:16.129Z,19.30
2023-04-29T15:55:42.778Z,19.40
2023-04-29T15:58:09.392Z,19.40
2023-04-29T16:00:36.053Z,19.40
2023-04-29T16:03:02.900Z,19.40
2023-04-29T16:05:31.512Z,19.40
2023-04-29T16:07:58.203Z,19.40
2023-04-29T16:10:24.934Z,19.40
2023-04-29T16:12:51.671Z,19.50
2023-04-29T16:15:18.631Z,19.50
2023-04-29T16:17:45.343Z,19.50
2023-04-29T16:20:12.485Z,19.50
2023-04-29T16:22:39.108Z,19.50
2023-04-29T16:25:06.494Z,19.50
2023-04-29T16:27:33.127Z,19.50
2023-04-29T16:29:59.956Z,19.50
2023-04-29T16:32:28.496Z,19.40
2023-04-29T16:34:55.367Z,19.40
2023-04-29T16:37:22.378Z,19.40
2023-04-29T16:39:49.112Z,19.40
2023-04-29T16:42:15.904Z,19.40
2023-04-29T16:44:42.590Z,19.40
2023-04-29T16:47:09.465Z,19.40
2023-04-29T16:49:36.232Z,19.40
2023-04-29T16:52:04.397Z,19.40
2023-04-29T16:54:31.504Z,19.30
2023-04-29T16:56:58.186Z,19.40
2023-04-29T16:59:24.861Z,19.30
2023-04-29T17:01:51.611Z,19.30
2023-04-29T17:04:18.353Z,19.30
2023-04-29T17:06:45.196Z,19.40
2023-04-29T17:09:12.372Z,19.20
2023-04-29T17:11:38.993Z,19.30
2023-04-29T17:14:05.603Z,19.20
2023-04-29T17:16:33.047Z,19.20
2023-04-29T17:18:59.875Z,19.20
2023-04-29T17:21:28.414Z,19.20
2023-04-29T17:23:55.037Z,19.10
2023-04-29T17:26:22.656Z,19.10
2023-04-29T17:28:49.372Z,19.10
2023-04-29T17:31:16.220Z,19.00
2023-04-29T17:33:54.640Z,19.00
2023-04-29T17:36:25.037Z,19.00
2023-04-29T17:38:51.646Z,18.90
2023-04-29T17:41:18.268Z,19.00
2023-04-29T17:43:44.897Z,18.80
2023-04-29T17:46:11.550Z,18.80
2023-04-29T17:48:38.344Z,18.70
2023-04-29T17:51:05.309Z,18.70
2023-04-29T17:53:33.044Z,18.70
2023-04-29T17:55:59.742Z,18.70
2023-04-29T17:58:28.901Z,18.60
2023-04-29T18:00:56.613Z,18.60
2023-04-29T18:03:23.757Z,18.50
2023-04-29T18:05:50.603Z,18.40
2023-04-29T18:08:17.320Z,18.40
2023-04-29T18:10:43.990Z,18.30
2023-04-29T18:13:10.942Z,18.20
2023-04-29T18:15:37.732Z,18.20
2023-04-29T18:18:04.500Z,18.10
2023-04-29T18:20:32.564Z,18.10
2023-04-29T18:22:59.317Z,18.00
2023-04-29T18:25:26.327Z,17.90
2023-04-29T18:27:59.798Z,17.90
2023-04-29T18:30:35.684Z,17.80
2023-04-29T18:33:02.455Z,17.80
2023-04-29T18:35:29.252Z,17.80
2023-04-29T18:37:55.950Z,17.70
2023-04-29T18:40:22.667Z,17.60
2023-04-29T18:42:49.351Z,17.60
2023-04-29T18:45:16.177Z,17.50
2023-04-29T18:47:42.804Z,17.50
2023-04-29T18:50:09.539Z,17.40
2023-04-29T18:52:36.710Z,17.40
2023-04-29T18:55:04.409Z,17.30
2023-04-29T18:57:31.389Z,17.20
2023-04-29T18:59:58.027Z,17.20
2023-04-29T19:02:25.066Z,17.20
2023-04-29T19:04:51.998Z,17.10
2023-04-29T19:07:18.723Z,17.00
2023-04-29T19:09:45.418Z,17.00
2023-04-29T19:12:12.142Z,16.90
2023-04-29T19:14:39.009Z,16.80
2023-04-29T19:17:05.642Z,16.80
2023-04-29T19:19:32.396Z,16.70
2023-04-29T19:21:59.200Z,16.60
2023-04-29T19:24:25.964Z,16.60
2023-04-29T19:26:52.874Z,16.50
2023-04-29T19:29:19.566Z,16.50
2023-04-29T19:31:46.335Z,16.40
2023-04-29T19:34:13.111Z,16.30
2023-04-29T19:36:39.774Z,16.30
2023-04-29T19:39:06.526Z,16.20
2023-04-29T19:41:34.921Z,16.20
2023-04-29T19:44:02.069Z,16.10
2023-04-29T19:46:28.745Z,16.10
2023-04-29T19:48:55.407Z,16.10
2023-04-29T19:51:22.059Z,16.00
2023-04-29T19:53:49.698Z,15.90
2023-04-29T19:56:16.454Z,15.90
2023-04-29T19:58:43.130Z,15.80
2023-04-29T20:01:09.862Z,15.80
2023-04-29T20:03:39.187Z,15.70
2023-04-29T20:06:07.207Z,15.70
2023-04-29T20:08:33.905Z,15.70
2023-04-29T20:11:00.833Z,15.60
2023-04-29T20:13:27.466Z,15.50
2023-04-29T20:15:54.303Z,15.50
2023-04-29T20:18:21.122Z,15.40
2023-04-29T20:20:48.362Z,15.40
2023-04-29T20:23:15.740Z,15.30
2023-04-29T20:25:42.503Z,15.30
2023-04-29T20:28:09.314Z,15.20
2023-04-29T20:30:36.313Z,15.20
2023-04-29T20:33:03.220Z,15.10
2023-04-29T20:35:30.347Z,15.10
2023-04-29T20:37:57.246Z,15.00
2023-04-29T20:40:23.889Z,15.00
2023-04-29T20:42:50.552Z,14.90
2023-04-29T20:45:17.372Z,14.80
2023-04-29T20:47:44.266Z,14.80
2023-04-29T20:50:11.889Z,14.70
2023-04-29T20:52:38.514Z,14.80
2023-04-29T20:55:05.469Z,14.60
2023-04-29T20:57:32.593Z,14.60
2023-04-29T20:59:59.280Z,14.50
2023-04-29T21:02:26.039Z,14.50
2023-04-29T21:04:52.809Z,14.40
2023-04-29T21:07:19.481Z,14.30
2023-04-29T21:09:48.480Z,14.30
2023-04-29T21:12:15.298Z,14.20
2023-04-29T21:14:42.706Z,14.20
2023-04-29T21:17:09.643Z,14.10
2023-04-29T21:19:37.462Z,14.00
2023-04-29T21:22:04.548Z,14.00
2023-04-29T21:24:31.516Z,14.00
2023-04-29T21:26:58.176Z,13.90
2023-04-29T21:29:24.798Z,13.80
2023-04-29T21:31:51.484Z,13.80
2023-04-29T21:34:18.684Z,13.70
2023-04-29T21:36:45.476Z,13.70
2023-04-29T21:39:12.084Z,13.60
2023-04-29T21:41:39.469Z,13.60
2023-04-29T21:44:07.132Z,13.60
2023-04-29T21:46:35.606Z,13.50
2023-04-29T21:49:03.255Z,13.50
2023-04-29T21:51:29.878Z,13.50
2023-04-29T21:53:56.562Z,13.40
2023-04-29T21:56:24.498Z,13.40
2023-04-29T21:58:51.333Z,13.30
2023-04-29T22:01:29.325Z,13.30
2023-04-29T22:03:59.059Z,13.30
2023-04-29T22:06:25.776Z,13.20
2023-04-29T22:08:52.627Z,13.20
2023-04-29T22:11:21.677Z,13.20
2023-04-29T22:13:48.838Z,13.10
2023-04-29T22:16:15.703Z,13.10
2023-04-29T22:18:42.439Z,13.00
2023-04-29T22:21:09.177Z,13.00
2023-04-29T22:23:35.953Z,13.00
2023-04-29T22:26:03.379Z,13.00
2023-04-29T22:28:30.035Z,12.90
2023-04-29T22:30:56.898Z,12.90
2023-04-29T22:33:23.671Z,12.90
2023-04-29T22:35:50.433Z,12.80
2023-04-29T22:38:17.047Z,12.80
2023-04-29T22:40:52.499Z,12.80
2023-04-29T22:43:19.205Z,12.80
2023-04-29T22:45:56.293Z,12.80
2023-04-29T22:48:25.841Z,12.80
2023-04-29T22:50:59.388Z,12.80
2023-04-29T22:53:26.599Z,12.70
2023-04-29T22:55:54.979Z,12.70
2023-04-29T22:58:22.037Z,12.70
2023-04-29T23:00:56.397Z,12.70
2023-04-29T23:03:23.850Z,12.70
2023-04-29T23:05:50.676Z,12.70
2023-04-29T23:08:17.429Z,12.70
2023-04-29T23:10:51.110Z,12.70
2023-04-29T23:13:17.883Z,12.70
2023-04-29T23:15:45.296Z,12.70
2023-04-29T23:18:12.406Z,12.70
2023-04-29T23:20:39.159Z,12.70
2023-04-29T23:23:05.964Z,12.60
2023-04-29T23:25:32.660Z,12.60
2023-04-29T23:27:59.399Z,12.60
2023-04-29T23:30:26.064Z,12.60
2023-04-29T23:32:52.849Z,12.60
2023-04-29T23:35:19.514Z,12.60
2023-04-29T23:37:46.142Z,12.60
2023-04-29T23:40:12.815Z,12.60
2023-04-29T23:42:39.448Z,12.60
2023-04-29T23:45:06.650Z,12.50
2023-04-29T23:47:33.338Z,12.50
2023-04-29T23:49:59.948Z,12.50
2023-04-29T23:52:26.614Z,12.50
2023-04-29T23:54:53.276Z,12.50
2023-04-29T23:57:19.933Z,12.50
2023-04-29T23:59:46.697Z,12.50
